Time;durP1;ratioP1;P1;durP2;ratioP2;P2;SDS_P1;SDS_P2;PMS_P1;PMS_P2;Temp;Humidity;BMP_temperature;BMP_pressure;BME280_temperature;BME280_humidity;BME280_pressure;Samples;Min_cycle;Max_cycle;Signal;HPM_P1;HPM_P2
2024/02/15 00:02:17;;;;;;;11.33;11.13;;;;;;;;;;5029374;27;21002;-70
2024/02/15 00:04:44;;;;;;;10.97;10.77;;;;;;;;;;5026946;27;20471;-71
2024/02/15 00:07:12;;;;;;;11.03;10.83;;;;;;;;;;5013006;27;20472;-73
2024/02/15 00:09:39;;;;;;;11.13;10.93;;;;;;;;;;5046622;27;20463;-71
2024/02/15 00:12:08;;;;;;;10.93;10.73;;;;;;;;;;5034465;27;20496;-71
2024/02/15 00:14:38;;;;;;;9.93;9.73;;;;;;;;;;5019462;27;20564;-72
2024/02/15 00:17:05;;;;;;;10.27;10.07;;;;;;;;;;5036299;27;20470;-74
2024/02/15 00:19:32;;;;;;;9.67;9.47;;;;;;;;;;5030817;27;20457;-71
2024/02/15 00:21:59;;;;;;;10.30;10.10;;;;;;;;;;5027249;27;20479;-71
2024/02/15 00:24:27;;;;;;;10.43;10.23;;;;;;;;;;5023522;27;21045;-72
2024/02/15 00:26:54;;;;;;;9.83;9.63;;;;;;;;;;5023695;27;20892;-71
2024/02/15 00:29:22;;;;;;;10.40;10.20;;;;;;;;;;5029264;27;20456;-74
2024/02/15 00:31:50;;;;;;;10.90;10.70;;;;;;;;;;5033528;27;20474;-71
2024/02/15 00:34:17;;;;;;;9.47;9.27;;;;;;;;;;5028231;27;20468;-71
2024/02/15 00:36:44;;;;;;;9.50;9.30;;;;;;;;;;5030036;27;20467;-74
2024/02/15 00:39:13;;;;;;;7.93;7.83;;;;;;;;;;5028382;28;20847;-71
2024/02/15 00:41:41;;;;;;;7.73;7.63;;;;;;;;;;5023035;27;20583;-74
2024/02/15 00:44:10;;;;;;;7.13;7.03;;;;;;;;;;5020395;27;21095;-74
2024/02/15 00:46:38;;;;;;;6.43;6.33;;;;;;;;;;5028090;27;20470;-70
2024/02/15 00:49:06;;;;;;;6.43;6.33;;;;;;;;;;5057024;27;20459;-71
2024/02/15 00:51:34;;;;;;;6.80;6.70;;;;;;;;;;5035867;27;20485;-71
2024/02/15 00:54:01;;;;;;;6.87;6.77;;;;;;;;;;5026251;27;20458;-73
2024/02/15 00:56:29;;;;;;;6.73;6.63;;;;;;;;;;5019205;27;20476;-70
2024/02/15 00:58:57;;;;;;;6.20;6.10;;;;;;;;;;4984802;28;20882;-73
2024/02/15 01:01:24;;;;;;;7.23;7.13;;;;;;;;;;4983716;27;20478;-75
2024/02/15 01:03:52;;;;;;;6.73;6.63;;;;;;;;;;4985496;27;20478;-71
2024/02/15 01:06:19;;;;;;;7.00;6.90;;;;;;;;;;4982608;28;20468;-71
2024/02/15 01:08:47;;;;;;;6.33;6.23;;;;;;;;;;4986261;27;20480;-72
2024/02/15 01:11:14;;;;;;;6.67;6.57;;;;;;;;;;4981951;27;21215;-73
2024/02/15 01:13:41;;;;;;;6.40;6.30;;;;;;;;;;4984766;27;21336;-71
2024/02/15 01:16:09;;;;;;;5.90;5.80;;;;;;;;;;4984630;27;21847;-74
2024/02/15 01:18:37;;;;;;;5.73;5.63;;;;;;;;;;4982511;28;20496;-71
2024/02/15 01:21:06;;;;;;;5.60;5.50;;;;;;;;;;4983152;27;20482;-72
2024/02/15 01:23:36;;;;;;;5.30;5.20;;;;;;;;;;4984430;27;20762;-72
2024/02/15 01:26:04;;;;;;;5.70;5.60;;;;;;;;;;4984650;28;20468;-72
2024/02/15 01:28:32;;;;;;;5.30;5.20;;;;;;;;;;4982823;27;20462;-72
2024/02/15 01:30:59;;;;;;;5.93;5.83;;;;;;;;;;4983395;27;20698;-72
2024/02/15 01:33:26;;;;;;;6.10;6.00;;;;;;;;;;4982400;28;21397;-72
2024/02/15 01:35:53;;;;;;;5.60;5.50;;;;;;;;;;4983535;27;20477;-73
2024/02/15 01:38:21;;;;;;;4.83;4.83;;;;;;;;;;4983054;27;20495;-72
2024/02/15 01:40:48;;;;;;;5.27;5.17;;;;;;;;;;4982694;27;21104;-71
2024/02/15 01:43:16;;;;;;;5.27;5.17;;;;;;;;;;4982926;27;20484;-71
2024/02/15 01:45:43;;;;;;;4.20;4.20;;;;;;;;;;4982814;27;20959;-71
2024/02/15 01:48:11;;;;;;;4.40;4.40;;;;;;;;;;4983782;27;20471;-72
2024/02/15 01:50:38;;;;;;;4.90;4.90;;;;;;;;;;4981791;27;20469;-74
2024/02/15 01:53:06;;;;;;;5.40;5.30;;;;;;;;;;4982741;27;20484;-71
2024/02/15 01:55:35;;;;;;;4.97;4.97;;;;;;;;;;4982920;27;20480;-71
2024/02/15 01:58:02;;;;;;;5.30;5.20;;;;;;;;;;5009392;27;20484;-71
2024/02/15 02:00:29;;;;;;;4.30;4.30;;;;;;;;;;5047614;27;20556;-71
2024/02/15 02:03:02;;;;;;;4.67;4.67;;;;;;;;;;5038507;27;20473;-71
2024/02/15 02:05:30;;;;;;;4.77;4.77;;;;;;;;;;5050642;27;20555;-71
2024/02/15 02:08:01;;;;;;;4.10;4.10;;;;;;;;;;5045581;27;20482;-73
2024/02/15 02:10:32;;;;;;;4.20;4.20;;;;;;;;;;5076663;27;20461;-71
2024/02/15 02:13:02;;;;;;;4.00;4.00;;;;;;;;;;5022500;28;20928;-74
2024/02/15 02:15:31;;;;;;;3.83;3.83;;;;;;;;;;5019784;27;20457;-71
2024/02/15 02:17:58;;;;;;;4.00;4.00;;;;;;;;;;5083396;27;20460;-71
2024/02/15 02:20:25;;;;;;;4.37;4.37;;;;;;;;;;5042473;27;21159;-72
2024/02/15 02:22:55;;;;;;;4.40;4.40;;;;;;;;;;5031469;27;20987;-73
2024/02/15 02:25:26;;;;;;;4.30;4.30;;;;;;;;;;5048456;27;20452;-71
2024/02/15 02:27:53;;;;;;;4.27;4.27;;;;;;;;;;5025878;27;20473;-71
2024/02/15 02:30:22;;;;;;;4.10;4.10;;;;;;;;;;5026313;27;20468;-71
2024/02/15 02:32:49;;;;;;;4.43;4.43;;;;;;;;;;5054200;27;20472;-71
2024/02/15 02:35:16;;;;;;;4.07;4.07;;;;;;;;;;5028803;27;20457;-71
2024/02/15 02:37:45;;;;;;;4.30;4.30;;;;;;;;;;5020232;27;20457;-71
2024/02/15 02:40:13;;;;;;;4.27;4.27;;;;;;;;;;5043443;27;20573;-73
2024/02/15 02:42:49;;;;;;;4.23;4.23;;;;;;;;;;5108813;27;20476;-71
2024/02/15 02:45:17;;;;;;;4.30;4.30;;;;;;;;;;5034918;27;20459;-71
2024/02/15 02:47:44;;;;;;;3.83;3.83;;;;;;;;;;5025340;27;20463;-72
2024/02/15 02:50:12;;;;;;;4.10;4.10;;;;;;;;;;5027428;28;20722;-73
2024/02/15 02:52:39;;;;;;;3.73;3.73;;;;;;;;;;5029186;27;20847;-72
2024/02/15 02:55:08;;;;;;;3.20;3.20;;;;;;;;;;5020839;28;20761;-71
2024/02/15 02:57:37;;;;;;;3.10;3.10;;;;;;;;;;5027516;27;20872;-70
2024/02/15 03:00:07;;;;;;;3.73;3.73;;;;;;;;;;5020839;27;20492;-73
2024/02/15 03:02:35;;;;;;;3.77;3.77;;;;;;;;;;5027028;27;20454;-73
2024/02/15 03:05:04;;;;;;;3.70;3.70;;;;;;;;;;5027625;28;20464;-71
2024/02/15 03:07:34;;;;;;;3.47;3.47;;;;;;;;;;5023014;28;20513;-71
2024/02/15 03:10:04;;;;;;;3.83;3.83;;;;;;;;;;5021604;27;20465;-71
2024/02/15 03:12:31;;;;;;;3.43;3.43;;;;;;;;;;5028588;27;20486;-71
2024/02/15 03:14:58;;;;;;;4.10;4.10;;;;;;;;;;5018427;27;20466;-71
2024/02/15 03:17:27;;;;;;;3.90;3.90;;;;;;;;;;5027972;28;20461;-71
2024/02/15 03:19:55;;;;;;;3.57;3.57;;;;;;;;;;5028599;27;20493;-74
2024/02/15 03:22:25;;;;;;;3.90;3.90;;;;;;;;;;5023534;27;20469;-72
2024/02/15 03:24:52;;;;;;;4.23;4.23;;;;;;;;;;5026613;28;20453;-72
2024/02/15 03:27:23;;;;;;;4.40;4.40;;;;;;;;;;5015433;27;20826;-73
2024/02/15 03:29:52;;;;;;;4.03;4.03;;;;;;;;;;5016408;28;20526;-71
2024/02/15 03:32:19;;;;;;;4.40;4.40;;;;;;;;;;5050303;27;20973;-71
2024/02/15 03:34:48;;;;;;;5.13;5.03;;;;;;;;;;5036488;27;20463;-70
2024/02/15 03:37:15;;;;;;;4.07;4.07;;;;;;;;;;5018196;27;20835;-73
2024/02/15 03:39:43;;;;;;;4.70;4.70;;;;;;;;;;5015987;28;20493;-71
2024/02/15 03:42:10;;;;;;;4.40;4.40;;;;;;;;;;5014951;28;20480;-73
2024/02/15 03:44:38;;;;;;;4.73;4.73;;;;;;;;;;5020558;28;20963;-71
2024/02/15 03:47:05;;;;;;;4.77;4.77;;;;;;;;;;5026171;28;20474;-73
2024/02/15 03:49:32;;;;;;;4.37;4.37;;;;;;;;;;5022623;28;20558;-72
2024/02/15 03:52:01;;;;;;;4.70;4.70;;;;;;;;;;5018119;28;20502;-71
2024/02/15 03:54:31;;;;;;;5.50;5.40;;;;;;;;;;5028984;28;20551;-73
2024/02/15 03:56:58;;;;;;;5.70;5.60;;;;;;;;;;5023631;28;20465;-71
2024/02/15 03:59:26;;;;;;;5.20;5.10;;;;;;;;;;5017666;28;20499;-71
2024/02/15 04:01:53;;;;;;;4.17;4.17;;;;;;;;;;5024155;28;20467;-72
2024/02/15 04:04:22;;;;;;;5.03;5.03;;;;;;;;;;5015604;28;20463;-71
2024/02/15 04:06:49;;;;;;;4.73;4.73;;;;;;;;;;5015722;28;20484;-71
2024/02/15 04:09:18;;;;;;;4.40;4.40;;;;;;;;;;5020848;28;21019;-74
2024/02/15 04:11:46;;;;;;;4.80;4.80;;;;;;;;;;5025995;28;20460;-70
2024/02/15 04:14:14;;;;;;;4.77;4.77;;;;;;;;;;5027076;28;20471;-71
2024/02/15 04:16:41;;;;;;;4.80;4.80;;;;;;;;;;5019551;28;21015;-71
2024/02/15 04:19:08;;;;;;;5.17;5.07;;;;;;;;;;5021013;28;20483;-73
2024/02/15 04:21:35;;;;;;;5.27;5.17;;;;;;;;;;5019629;28;20466;-72
2024/02/15 04:24:03;;;;;;;4.93;4.93;;;;;;;;;;5016426;28;21052;-71
2024/02/15 04:26:33;;;;;;;4.87;4.87;;;;;;;;;;5024665;28;20726;-72
2024/02/15 04:29:00;;;;;;;5.37;5.27;;;;;;;;;;5026066;28;20464;-72
2024/02/15 04:31:27;;;;;;;4.60;4.60;;;;;;;;;;5016499;28;20544;-71
2024/02/15 04:33:54;;;;;;;5.60;5.50;;;;;;;;;;5009063;28;20468;-72
2024/02/15 04:36:24;;;;;;;4.57;4.57;;;;;;;;;;5017862;28;20896;-72
2024/02/15 04:38:52;;;;;;;5.03;5.00;;;;;;;;;;5024511;28;20491;-71
2024/02/15 04:41:22;;;;;;;5.43;5.33;;;;;;;;;;5027087;28;20501;-71
2024/02/15 04:43:51;;;;;;;5.30;5.20;;;;;;;;;;5021520;28;21060;-71
2024/02/15 04:46:20;;;;;;;5.70;5.60;;;;;;;;;;5013769;27;20475;-71
2024/02/15 04:48:49;;;;;;;5.80;5.70;;;;;;;;;;5017420;28;20559;-72
2024/02/15 04:51:17;;;;;;;5.60;5.50;;;;;;;;;;5025832;27;20449;-71
2024/02/15 04:53:46;;;;;;;6.10;6.00;;;;;;;;;;5021657;27;20457;-72
2024/02/15 04:56:16;;;;;;;5.67;5.57;;;;;;;;;;5029219;27;20965;-71
2024/02/15 04:58:45;;;;;;;5.93;5.83;;;;;;;;;;5024268;27;21029;-72
2024/02/15 05:01:15;;;;;;;6.13;6.03;;;;;;;;;;5018172;28;21046;-71
2024/02/15 05:03:42;;;;;;;9.20;9.00;;;;;;;;;;5015505;27;21075;-70
2024/02/15 05:06:10;;;;;;;11.03;10.73;;;;;;;;;;5005468;27;20564;-70
2024/02/15 05:08:42;;;;;;;11.20;10.90;;;;;;;;;;5021132;27;20463;-71
2024/02/15 05:11:12;;;;;;;11.90;11.60;;;;;;;;;;5023211;27;20827;-71
2024/02/15 05:13:40;;;;;;;11.63;11.33;;;;;;;;;;5017513;27;20455;-72
2024/02/15 05:16:07;;;;;;;12.13;11.83;;;;;;;;;;5026065;27;20883;-71
2024/02/15 05:18:37;;;;;;;12.03;11.73;;;;;;;;;;5013038;27;20479;-72
2024/02/15 05:21:09;;;;;;;11.90;11.60;;;;;;;;;;5015370;27;20503;-71
2024/02/15 05:23:36;;;;;;;12.10;11.80;;;;;;;;;;5021333;27;20461;-71
2024/02/15 05:26:03;;;;;;;11.80;11.50;;;;;;;;;;5014445;27;20469;-71
2024/02/15 05:28:31;;;;;;;12.80;12.40;;;;;;;;;;5023340;27;20542;-72
2024/02/15 05:31:14;;;;;;;13.23;12.83;;;;;;;;;;5014757;27;20477;-71
2024/02/15 05:33:43;;;;;;;13.50;13.10;;;;;;;;;;5018673;27;20500;-72
2024/02/15 05:36:11;;;;;;;13.77;13.37;;;;;;;;;;5011062;27;20462;-70
2024/02/15 05:38:38;;;;;;;13.43;13.03;;;;;;;;;;5015611;27;20870;-71
2024/02/15 05:41:07;;;;;;;14.10;13.60;;;;;;;;;;5015573;28;20493;-71
2024/02/15 05:43:36;;;;;;;15.17;14.57;;;;;;;;;;5016213;27;21011;-71
2024/02/15 05:46:03;;;;;;;14.53;14.03;;;;;;;;;;5016751;27;20477;-70
2024/02/15 05:48:30;;;;;;;14.17;13.67;;;;;;;;;;5012997;27;20485;-71
2024/02/15 05:51:00;;;;;;;14.47;13.97;;;;;;;;;;5016123;27;21260;-74
2024/02/15 05:53:28;;;;;;;14.97;14.47;;;;;;;;;;4980406;28;20531;-73
2024/02/15 05:55:57;;;;;;;15.30;14.70;;;;;;;;;;4985500;28;20466;-71
2024/02/15 05:58:25;;;;;;;15.43;14.83;;;;;;;;;;4978903;28;20470;-72
2024/02/15 06:00:53;;;;;;;15.30;14.70;;;;;;;;;;4980580;28;20501;-71
2024/02/15 06:03:22;;;;;;;16.10;15.50;;;;;;;;;;4982995;28;20468;-71
2024/02/15 06:05:49;;;;;;;15.67;15.07;;;;;;;;;;4974482;28;20482;-72
2024/02/15 06:08:18;;;;;;;15.00;14.50;;;;;;;;;;4977195;28;20871;-73
2024/02/15 06:10:46;;;;;;;14.97;14.47;;;;;;;;;;4984677;28;20528;-72
2024/02/15 06:13:14;;;;;;;14.87;14.37;;;;;;;;;;4974883;28;20524;-72
2024/02/15 06:15:41;;;;;;;15.10;14.60;;;;;;;;;;4986732;28;20541;-72
2024/02/15 06:18:11;;;;;;;14.63;14.13;;;;;;;;;;4978671;28;20836;-71
2024/02/15 06:20:39;;;;;;;14.53;14.03;;;;;;;;;;4975970;28;20537;-71
2024/02/15 06:23:07;;;;;;;14.03;13.53;;;;;;;;;;4980609;28;20520;-71
2024/02/15 06:25:36;;;;;;;13.87;13.43;;;;;;;;;;4987444;28;20466;-71
2024/02/15 06:28:13;;;;;;;14.70;14.20;;;;;;;;;;4976879;28;20474;-73
2024/02/15 06:41:42;;;;;;;14.63;14.13;;;;;;;;;;4980750;28;20488;-71
2024/02/15 06:44:09;;;;;;;14.63;14.13;;;;;;;;;;4982643;28;20475;-71
2024/02/15 06:46:37;;;;;;;14.73;14.23;;;;;;;;;;4982908;28;21275;-71
2024/02/15 06:51:45;;;;;;;15.40;14.80;;;;;;;;;;4986686;27;20995;-71
2024/02/15 06:54:13;;;;;;;16.10;15.50;;;;;;;;;;5012896;27;20568;-70
2024/02/15 06:56:40;;;;;;;16.40;15.70;;;;;;;;;;5005646;27;20466;-74
2024/02/15 06:59:13;;;;;;;15.60;15.00;;;;;;;;;;5017764;27;20979;-70
2024/02/15 07:01:41;;;;;;;16.17;15.57;;;;;;;;;;5019726;27;20524;-72
2024/02/15 07:04:10;;;;;;;17.00;16.30;;;;;;;;;;5011262;28;20977;-71
2024/02/15 07:06:37;;;;;;;16.27;15.67;;;;;;;;;;5015647;27;20470;-76
2024/02/15 07:09:04;;;;;;;16.33;15.73;;;;;;;;;;5032117;27;20463;-75
2024/02/15 07:11:32;;;;;;;16.23;15.63;;;;;;;;;;5046212;27;21026;-71
2024/02/15 07:13:59;;;;;;;16.40;15.80;;;;;;;;;;5017448;27;20924;-75
2024/02/15 07:16:29;;;;;;;16.57;15.97;;;;;;;;;;5012094;27;20468;-74
2024/02/15 07:18:56;;;;;;;16.50;15.90;;;;;;;;;;5020365;28;20554;-72
2024/02/15 07:21:26;;;;;;;16.97;16.37;;;;;;;;;;5012661;27;20998;-72
2024/02/15 07:23:54;;;;;;;17.40;16.70;;;;;;;;;;5009036;28;20474;-72
2024/02/15 07:26:24;;;;;;;17.23;16.60;;;;;;;;;;5024516;27;20932;-70
2024/02/15 07:28:52;;;;;;;16.90;16.30;;;;;;;;;;5010745;28;20556;-73
2024/02/15 07:31:21;;;;;;;16.83;16.23;;;;;;;;;;5016360;28;22454;-76
2024/02/15 07:33:51;;;;;;;17.23;16.63;;;;;;;;;;5012976;28;20468;-72
2024/02/15 07:36:21;;;;;;;16.80;16.20;;;;;;;;;;5038564;27;20463;-75
2024/02/15 07:38:49;;;;;;;16.07;15.57;;;;;;;;;;5052009;27;20699;-72
2024/02/15 07:41:17;;;;;;;15.57;15.07;;;;;;;;;;5042761;27;20984;-74
2024/02/15 07:43:47;;;;;;;17.00;16.40;;;;;;;;;;5038324;27;21030;-72
2024/02/15 07:46:16;;;;;;;16.83;16.23;;;;;;;;;;5047537;27;20469;-75
2024/02/15 07:48:45;;;;;;;16.77;16.17;;;;;;;;;;5028650;28;20525;-72
2024/02/15 07:51:15;;;;;;;16.57;16.00;;;;;;;;;;5015530;28;21050;-72
2024/02/15 07:53:42;;;;;;;17.00;16.40;;;;;;;;;;5016774;28;20452;-73
2024/02/15 07:56:10;;;;;;;16.87;16.30;;;;;;;;;;5014563;28;20468;-73
2024/02/15 07:58:40;;;;;;;17.40;16.80;;;;;;;;;;5018642;28;21127;-73
2024/02/15 08:01:08;;;;;;;16.50;16.00;;;;;;;;;;5012061;28;20560;-72
2024/02/15 08:03:35;;;;;;;16.60;16.10;;;;;;;;;;5007757;28;20472;-76
2024/02/15 08:06:06;;;;;;;15.40;14.90;;;;;;;;;;5016636;28;20465;-76
2024/02/15 08:08:35;;;;;;;15.80;15.30;;;;;;;;;;5021716;28;20543;-71
2024/02/15 08:11:03;;;;;;;15.57;15.07;;;;;;;;;;5026496;28;20479;-73
2024/02/15 08:13:30;;;;;;;15.90;15.40;;;;;;;;;;5015327;28;20576;-72
2024/02/15 08:15:57;;;;;;;15.93;15.43;;;;;;;;;;5013478;28;20471;-76
2024/02/15 08:18:25;;;;;;;15.50;15.00;;;;;;;;;;5013444;28;20494;-76
2024/02/15 08:20:53;;;;;;;15.43;14.93;;;;;;;;;;5010379;27;20527;-73
2024/02/15 08:23:20;;;;;;;15.97;15.47;;;;;;;;;;5022381;27;20461;-72
2024/02/15 08:25:49;;;;;;;15.67;15.17;;;;;;;;;;5020147;27;20465;-72
2024/02/15 08:28:16;;;;;;;15.33;14.83;;;;;;;;;;5023425;27;20449;-77
2024/02/15 08:30:43;;;;;;;15.43;14.93;;;;;;;;;;5016981;28;20461;-73
2024/02/15 08:33:11;;;;;;;15.50;15.00;;;;;;;;;;5021028;28;20462;-72
2024/02/15 08:35:39;;;;;;;15.50;15.00;;;;;;;;;;5017477;27;21012;-72
2024/02/15 08:38:07;;;;;;;14.93;14.43;;;;;;;;;;5021238;27;20820;-74
2024/02/15 08:40:34;;;;;;;15.60;15.10;;;;;;;;;;5015683;28;20729;-72
2024/02/15 08:43:03;;;;;;;15.70;15.20;;;;;;;;;;5023423;28;20576;-72
2024/02/15 08:45:30;;;;;;;15.00;14.50;;;;;;;;;;5012309;28;20960;-74
2024/02/15 08:47:57;;;;;;;15.63;15.13;;;;;;;;;;5019635;28;20537;-72
2024/02/15 08:50:25;;;;;;;14.87;14.37;;;;;;;;;;5019702;28;20460;-72
2024/02/15 08:52:52;;;;;;;15.67;15.17;;;;;;;;;;5014318;27;20491;-72
2024/02/15 08:55:23;;;;;;;15.43;14.93;;;;;;;;;;5008237;27;20480;-72
2024/02/15 08:57:50;;;;;;;15.43;14.93;;;;;;;;;;5011960;27;20465;-72
2024/02/15 09:00:19;;;;;;;15.27;14.77;;;;;;;;;;5041804;27;20498;-76
2024/02/15 09:02:47;;;;;;;15.00;14.50;;;;;;;;;;5024357;27;20522;-72
2024/02/15 09:05:14;;;;;;;15.53;14.93;;;;;;;;;;5035454;27;20724;-72
2024/02/15 09:07:42;;;;;;;15.40;14.90;;;;;;;;;;5034422;27;20841;-72
2024/02/15 09:10:11;;;;;;;14.63;14.13;;;;;;;;;;5050697;27;20465;-74
2024/02/15 09:12:39;;;;;;;15.27;14.77;;;;;;;;;;5014132;27;20465;-72
2024/02/15 09:15:08;;;;;;;15.20;14.70;;;;;;;;;;5034318;27;20468;-75
2024/02/15 09:17:38;;;;;;;15.37;14.87;;;;;;;;;;5037008;27;20456;-73
2024/02/15 09:20:07;;;;;;;16.33;15.73;;;;;;;;;;5043615;27;20449;-72
2024/02/15 09:22:35;;;;;;;16.17;15.57;;;;;;;;;;5055917;27;20460;-72
2024/02/15 09:25:02;;;;;;;16.40;15.80;;;;;;;;;;5019667;27;20467;-72
2024/02/15 09:27:30;;;;;;;16.03;15.43;;;;;;;;;;5012331;27;22352;-74
2024/02/15 09:29:57;;;;;;;16.03;15.43;;;;;;;;;;5022657;27;20466;-72
2024/02/15 09:32:25;;;;;;;16.67;15.97;;;;;;;;;;5023017;27;20474;-72
2024/02/15 09:34:53;;;;;;;16.67;15.97;;;;;;;;;;5020954;27;20469;-71
2024/02/15 09:37:20;;;;;;;16.67;15.97;;;;;;;;;;5020186;27;20528;-75
2024/02/15 09:39:48;;;;;;;16.80;16.10;;;;;;;;;;5027983;27;20470;-74
2024/02/15 09:42:15;;;;;;;17.13;16.43;;;;;;;;;;5015098;27;20493;-72
2024/02/15 09:44:44;;;;;;;17.00;16.30;;;;;;;;;;5020640;27;20463;-76
2024/02/15 09:47:15;;;;;;;16.60;15.90;;;;;;;;;;5020095;27;20834;-72
2024/02/15 09:49:42;;;;;;;17.17;16.47;;;;;;;;;;5023090;27;20487;-72
2024/02/15 09:52:11;;;;;;;17.10;16.30;;;;;;;;;;5009749;28;20494;-72
2024/02/15 09:54:43;;;;;;;16.90;16.10;;;;;;;;;;5011054;28;20466;-72
2024/02/15 09:57:11;;;;;;;16.83;16.03;;;;;;;;;;5018482;27;20857;-73
2024/02/15 09:59:38;;;;;;;16.60;15.90;;;;;;;;;;5018649;27;20957;-75
2024/02/15 10:02:10;;;;;;;17.07;16.27;;;;;;;;;;5020439;27;20519;-72
2024/02/15 10:04:38;;;;;;;16.70;16.00;;;;;;;;;;5017889;27;20510;-72
2024/02/15 10:07:05;;;;;;;16.83;16.03;;;;;;;;;;5025837;27;20463;-72
2024/02/15 10:09:35;;;;;;;17.50;16.70;;;;;;;;;;5015408;27;21600;-72
2024/02/15 10:12:03;;;;;;;16.90;16.10;;;;;;;;;;5016913;27;20446;-72
2024/02/15 10:14:31;;;;;;;17.30;16.50;;;;;;;;;;5020485;28;20546;-75
2024/02/15 10:16:58;;;;;;;16.97;16.17;;;;;;;;;;5022326;27;20869;-73
2024/02/15 10:19:25;;;;;;;17.30;16.50;;;;;;;;;;5010611;28;21188;-72
2024/02/15 10:21:55;;;;;;;17.27;16.47;;;;;;;;;;5017461;28;20479;-72
2024/02/15 10:24:24;;;;;;;18.00;17.10;;;;;;;;;;5022032;27;20459;-71
2024/02/15 10:26:52;;;;;;;17.50;16.67;;;;;;;;;;5010414;28;20471;-73
2024/02/15 10:29:21;;;;;;;17.70;16.80;;;;;;;;;;5015859;28;20670;-74
2024/02/15 10:31:55;;;;;;;17.23;16.43;;;;;;;;;;5018926;28;20460;-73
2024/02/15 10:34:23;;;;;;;17.50;16.60;;;;;;;;;;5021453;27;20464;-72
2024/02/15 10:36:50;;;;;;;17.17;16.37;;;;;;;;;;5013605;27;20738;-74
2024/02/15 10:39:19;;;;;;;17.20;16.40;;;;;;;;;;5022785;28;20794;-72
2024/02/15 10:41:47;;;;;;;17.03;16.23;;;;;;;;;;5020327;28;21025;-72
2024/02/15 10:44:17;;;;;;;17.37;16.53;;;;;;;;;;5015428;28;20475;-72
2024/02/15 10:46:46;;;;;;;16.70;15.90;;;;;;;;;;5017835;28;20461;-71
2024/02/15 10:49:14;;;;;;;16.30;15.60;;;;;;;;;;5011392;27;21150;-70
2024/02/15 10:51:44;;;;;;;16.60;15.80;;;;;;;;;;5016843;28;20577;-72
2024/02/15 10:54:14;;;;;;;16.30;15.60;;;;;;;;;;5015781;28;20463;-72
2024/02/15 10:56:44;;;;;;;16.30;15.60;;;;;;;;;;5013979;28;20931;-72
2024/02/15 10:59:13;;;;;;;16.40;15.70;;;;;;;;;;5011806;28;20666;-72
2024/02/15 11:01:42;;;;;;;16.40;15.70;;;;;;;;;;5021049;28;20500;-74
2024/02/15 11:04:10;;;;;;;16.27;15.57;;;;;;;;;;5020756;27;20539;-73
2024/02/15 11:06:41;;;;;;;16.00;15.30;;;;;;;;;;5010405;28;20474;-72
2024/02/15 11:09:08;;;;;;;16.60;15.80;;;;;;;;;;5027158;28;20456;-73
2024/02/15 11:11:37;;;;;;;17.03;16.23;;;;;;;;;;5017776;28;20559;-72
2024/02/15 11:14:23;;;;;;;16.40;15.70;;;;;;;;;;5022127;28;20462;-72
2024/02/15 11:16:51;;;;;;;15.73;15.13;;;;;;;;;;5005744;28;20477;-71
2024/02/15 11:19:33;;;;;;;16.50;15.80;;;;;;;;;;5019526;28;20488;-72
2024/02/15 11:22:03;;;;;;;15.93;15.23;;;;;;;;;;5022841;28;20492;-73
2024/02/15 11:24:32;;;;;;;16.30;15.60;;;;;;;;;;5013113;28;20562;-72
2024/02/15 11:27:02;;;;;;;15.80;15.20;;;;;;;;;;5018770;28;21276;-72
2024/02/15 11:29:51;;;;;;;15.10;14.50;;;;;;;;;;5034832;27;20468;-70
2024/02/15 11:32:33;;;;;;;14.47;13.97;;;;;;;;;;5024830;27;20480;-71
2024/02/15 11:35:11;;;;;;;14.80;14.30;;;;;;;;;;5009466;27;20479;-70
2024/02/15 11:38:13;;;;;;;14.33;13.83;;;;;;;;;;5013900;28;20490;-71
2024/02/15 11:40:59;;;;;;;14.40;13.90;;;;;;;;;;4985426;28;20548;-71
2024/02/15 11:43:45;;;;;;;13.83;13.37;;;;;;;;;;5025495;27;20495;-71
2024/02/15 11:46:14;;;;;;;14.20;13.70;;;;;;;;;;5008690;28;20829;-70
2024/02/15 11:48:41;;;;;;;14.30;13.80;;;;;;;;;;5021447;28;20464;-72
2024/02/15 11:51:11;;;;;;;14.57;14.07;;;;;;;;;;5015822;28;20484;-73
2024/02/15 11:53:39;;;;;;;14.00;13.50;;;;;;;;;;5011951;28;20468;-72
2024/02/15 11:56:09;;;;;;;14.23;13.73;;;;;;;;;;5006516;28;20472;-71
2024/02/15 11:58:51;;;;;;;13.80;13.30;;;;;;;;;;5013618;28;20472;-72
2024/02/15 12:20:34;;;;;;;14.50;14.00;;;;;;;;;;5010534;28;20521;-71
2024/02/15 12:23:02;;;;;;;14.13;13.63;;;;;;;;;;5021517;28;20494;-71
2024/02/15 12:25:32;;;;;;;14.30;13.80;;;;;;;;;;5016138;28;20468;-71
2024/02/15 12:28:01;;;;;;;14.33;13.83;;;;;;;;;;5013282;28;20474;-71
2024/02/15 12:30:36;;;;;;;14.17;13.67;;;;;;;;;;5008128;28;20882;-72
2024/02/15 12:33:10;;;;;;;14.30;13.80;;;;;;;;;;5059780;28;20458;-72
2024/02/15 12:35:38;;;;;;;14.20;13.70;;;;;;;;;;5015462;28;21037;-71
2024/02/15 12:38:08;;;;;;;14.10;13.60;;;;;;;;;;5014365;28;20469;-74
2024/02/15 12:40:36;;;;;;;14.40;13.90;;;;;;;;;;5018985;28;20458;-71
2024/02/15 12:43:05;;;;;;;14.00;13.50;;;;;;;;;;5011700;28;20498;-72
2024/02/15 12:45:32;;;;;;;14.30;13.80;;;;;;;;;;5015532;28;20456;-72
2024/02/15 12:48:00;;;;;;;14.10;13.60;;;;;;;;;;5008323;28;20493;-73
2024/02/15 12:50:29;;;;;;;14.37;13.87;;;;;;;;;;5021777;28;20962;-73
2024/02/15 12:53:01;;;;;;;13.80;13.40;;;;;;;;;;5009705;28;20507;-70
2024/02/15 12:55:34;;;;;;;13.60;13.20;;;;;;;;;;5019097;28;20464;-72
2024/02/15 12:58:03;;;;;;;14.50;14.00;;;;;;;;;;5006411;28;20511;-72
2024/02/15 13:00:32;;;;;;;13.60;13.20;;;;;;;;;;5010007;28;20471;-70
2024/02/15 13:03:03;;;;;;;13.50;13.10;;;;;;;;;;5020188;28;20500;-72
2024/02/15 13:05:30;;;;;;;13.47;13.07;;;;;;;;;;5020316;28;20456;-71
2024/02/15 13:07:58;;;;;;;13.50;13.10;;;;;;;;;;5015357;28;21044;-72
2024/02/15 13:10:26;;;;;;;13.30;12.90;;;;;;;;;;5035706;27;20953;-72
2024/02/15 13:12:55;;;;;;;13.40;13.00;;;;;;;;;;5014182;28;20497;-72
2024/02/15 13:15:27;;;;;;;13.30;12.90;;;;;;;;;;5012880;27;20463;-70
2024/02/15 13:17:55;;;;;;;13.40;13.00;;;;;;;;;;5022080;27;20500;-71
2024/02/15 13:20:31;;;;;;;13.73;13.30;;;;;;;;;;5023910;27;20860;-70
2024/02/15 13:23:02;;;;;;;14.00;13.50;;;;;;;;;;5013050;28;21088;-70
2024/02/15 13:25:29;;;;;;;13.73;13.23;;;;;;;;;;5012929;28;20462;-70
2024/02/15 13:27:58;;;;;;;13.20;12.80;;;;;;;;;;5016866;27;20919;-70
2024/02/15 13:30:27;;;;;;;14.00;13.50;;;;;;;;;;5019877;28;20540;-71
2024/02/15 13:32:55;;;;;;;13.90;13.40;;;;;;;;;;5045217;27;20458;-71
2024/02/15 13:35:23;;;;;;;14.00;13.50;;;;;;;;;;5027343;27;20516;-72
2024/02/15 13:37:53;;;;;;;13.83;13.37;;;;;;;;;;5014282;27;20481;-71
2024/02/15 13:40:23;;;;;;;14.00;13.50;;;;;;;;;;5017379;28;20795;-70
2024/02/15 13:42:52;;;;;;;13.60;13.20;;;;;;;;;;5008379;28;20672;-71
2024/02/15 13:45:22;;;;;;;13.90;13.40;;;;;;;;;;5021926;27;20464;-71
2024/02/15 13:47:50;;;;;;;14.20;13.70;;;;;;;;;;5017385;28;20508;-71
2024/02/15 13:50:17;;;;;;;14.60;14.10;;;;;;;;;;5017043;27;20459;-70
2024/02/15 13:52:45;;;;;;;13.80;13.30;;;;;;;;;;5017056;28;20845;-71
2024/02/15 13:55:13;;;;;;;13.53;13.13;;;;;;;;;;5015945;27;20475;-71
2024/02/15 13:57:41;;;;;;;13.50;13.10;;;;;;;;;;5015610;28;20461;-70
2024/02/15 14:00:13;;;;;;;14.07;13.57;;;;;;;;;;5039344;27;20962;-69
2024/02/15 14:02:42;;;;;;;13.87;13.47;;;;;;;;;;5021757;28;20497;-71
2024/02/15 14:05:11;;;;;;;14.00;13.50;;;;;;;;;;5019153;28;21050;-71
2024/02/15 14:07:38;;;;;;;13.70;13.30;;;;;;;;;;5013189;28;20459;-70
2024/02/15 14:10:06;;;;;;;13.30;12.90;;;;;;;;;;5023987;27;20488;-71
2024/02/15 14:12:34;;;;;;;13.77;13.37;;;;;;;;;;5023249;27;20467;-69
2024/02/15 14:15:01;;;;;;;13.40;13.00;;;;;;;;;;5020372;28;20472;-70
2024/02/15 14:17:29;;;;;;;13.20;12.80;;;;;;;;;;5018848;28;20502;-70
2024/02/15 14:19:57;;;;;;;14.00;13.50;;;;;;;;;;5023360;28;20460;-71
2024/02/15 14:22:28;;;;;;;13.70;13.30;;;;;;;;;;5012643;28;20496;-71
2024/02/15 14:24:56;;;;;;;14.13;13.63;;;;;;;;;;5012250;27;20476;-70
2024/02/15 14:27:23;;;;;;;13.60;13.20;;;;;;;;;;5022353;28;21034;-70
2024/02/15 14:35:18;;;;;;;14.20;13.70;;;;;;;;;;5021250;28;20528;-72
2024/02/15 14:37:45;;;;;;;14.40;13.90;;;;;;;;;;5016760;27;20571;-70
2024/02/15 14:40:15;;;;;;;14.20;13.70;;;;;;;;;;5018540;27;21001;-70
2024/02/15 14:42:42;;;;;;;14.40;13.90;;;;;;;;;;5011306;27;20573;-72
2024/02/15 14:45:10;;;;;;;14.80;14.30;;;;;;;;;;5030341;27;20463;-70
2024/02/15 14:47:38;;;;;;;14.67;14.17;;;;;;;;;;5022415;27;20459;-70
2024/02/15 14:50:08;;;;;;;14.40;13.90;;;;;;;;;;5022431;28;21102;-72
2024/02/15 14:52:38;;;;;;;14.43;13.93;;;;;;;;;;5016097;28;20589;-71
2024/02/15 14:55:07;;;;;;;13.90;13.47;;;;;;;;;;5022788;27;20454;-71
2024/02/15 14:57:35;;;;;;;14.20;13.70;;;;;;;;;;5021808;28;20940;-70
2024/02/15 15:00:03;;;;;;;14.10;13.60;;;;;;;;;;5030114;27;20819;-70
2024/02/15 15:02:31;;;;;;;13.70;13.30;;;;;;;;;;5021641;27;20485;-71
2024/02/15 15:12:36;;;;;;;13.80;13.40;;;;;;;;;;5014983;28;20457;-70
2024/02/15 15:13:18;;;;;;;13.87;13.47;;;;;;;;;;5017130;28;20460;-72
2024/02/15 15:15:47;;;;;;;13.53;13.13;;;;;;;;;;5020025;28;20837;-71
2024/02/15 15:18:14;;;;;;;13.60;13.20;;;;;;;;;;5021954;28;20458;-73
2024/02/15 15:20:41;;;;;;;13.50;13.10;;;;;;;;;;5017401;28;20480;-72